sensor_id;sensor_type;location;lat;lon;timestamp;P1;durP1;ratioP1;P2;durP2;ratioP2
67804;SDS011;54603;45.638;11.714;2022-12-18T00:01:32;2.80;;;2.50;;
67804;SDS011;54603;45.638;11.714;2022-12-18T00:03:59;2.90;;;2.60;;
67804;SDS011;54603;45.638;11.714;2022-12-18T00:06:26;3.50;;;2.60;;
67804;SDS011;54603;45.638;11.714;2022-12-18T00:08:54;2.90;;;2.50;;
67804;SDS011;54603;45.638;11.714;2022-12-18T00:11:21;2.90;;;2.60;;
67804;SDS011;54603;45.638;11.714;2022-12-18T00:13:49;3.50;;;2.80;;
67804;SDS011;54603;45.638;11.714;2022-12-18T00:16:16;3.60;;;3.20;;
67804;SDS011;54603;45.638;11.714;2022-12-18T00:18:45;3.30;;;2.90;;
67804;SDS011;54603;45.638;11.714;2022-12-18T00:21:12;3.20;;;2.70;;
67804;SDS011;54603;45.638;11.714;2022-12-18T00:23:39;3.60;;;2.80;;
67804;SDS011;54603;45.638;11.714;2022-12-18T00:26:08;2.90;;;2.50;;
67804;SDS011;54603;45.638;11.714;2022-12-18T00:28:43;3.20;;;2.70;;
67804;SDS011;54603;45.638;11.714;2022-12-18T00:31:11;2.70;;;2.30;;
67804;SDS011;54603;45.638;11.714;2022-12-18T00:33:38;3.90;;;2.70;;
67804;SDS011;54603;45.638;11.714;2022-12-18T00:36:05;3.00;;;2.60;;
67804;SDS011;54603;45.638;11.714;2022-12-18T00:38:33;2.90;;;2.50;;
67804;SDS011;54603;45.638;11.714;2022-12-18T00:40:59;3.60;;;2.50;;
67804;SDS011;54603;45.638;11.714;2022-12-18T00:43:24;3.30;;;2.50;;
67804;SDS011;54603;45.638;11.714;2022-12-18T00:45:50;2.40;;;2.20;;
67804;SDS011;54603;45.638;11.714;2022-12-18T00:48:15;2.50;;;2.20;;
67804;SDS011;54603;45.638;11.714;2022-12-18T00:50:41;3.40;;;2.80;;
67804;SDS011;54603;45.638;11.714;2022-12-18T00:53:07;2.50;;;2.30;;
67804;SDS011;54603;45.638;11.714;2022-12-18T00:55:32;3.50;;;2.60;;
67804;SDS011;54603;45.638;11.714;2022-12-18T00:57:58;3.00;;;2.50;;
67804;SDS011;54603;45.638;11.714;2022-12-18T01:00:23;3.00;;;2.50;;
67804;SDS011;54603;45.638;11.714;2022-12-18T01:02:49;2.70;;;2.50;;
67804;SDS011;54603;45.638;11.714;2022-12-18T01:05:14;2.80;;;2.40;;
67804;SDS011;54603;45.638;11.714;2022-12-18T01:07:40;3.00;;;2.50;;
67804;SDS011;54603;45.638;11.714;2022-12-18T01:10:06;3.20;;;2.50;;
67804;SDS011;54603;45.638;11.714;2022-12-18T01:12:33;3.00;;;2.60;;
67804;SDS011;54603;45.638;11.714;2022-12-18T01:14:59;3.20;;;2.50;;
67804;SDS011;54603;45.638;11.714;2022-12-18T01:17:24;3.00;;;2.60;;
67804;SDS011;54603;45.638;11.714;2022-12-18T01:19:50;2.50;;;2.20;;
67804;SDS011;54603;45.638;11.714;2022-12-18T01:22:15;2.60;;;2.30;;
67804;SDS011;54603;45.638;11.714;2022-12-18T01:24:41;3.00;;;2.70;;
67804;SDS011;54603;45.638;11.714;2022-12-18T01:27:06;2.80;;;2.30;;
67804;SDS011;54603;45.638;11.714;2022-12-18T01:29:32;4.10;;;2.40;;
67804;SDS011;54603;45.638;11.714;2022-12-18T01:31:57;3.00;;;2.30;;
67804;SDS011;54603;45.638;11.714;2022-12-18T01:34:23;3.00;;;2.40;;
67804;SDS011;54603;45.638;11.714;2022-12-18T01:36:49;3.40;;;2.40;;
67804;SDS011;54603;45.638;11.714;2022-12-18T01:39:17;2.50;;;2.30;;
67804;SDS011;54603;45.638;11.714;2022-12-18T01:41:44;2.70;;;2.30;;
67804;SDS011;54603;45.638;11.714;2022-12-18T01:47:24;3.50;;;2.60;;
67804;SDS011;54603;45.638;11.714;2022-12-18T01:49:57;4.70;;;2.50;;
67804;SDS011;54603;45.638;11.714;2022-12-18T01:52:26;2.70;;;2.50;;
67804;SDS011;54603;45.638;11.714;2022-12-18T01:54:54;3.10;;;2.80;;
67804;SDS011;54603;45.638;11.714;2022-12-18T01:57:20;3.00;;;2.60;;
67804;SDS011;54603;45.638;11.714;2022-12-18T01:59:47;3.10;;;2.60;;
67804;SDS011;54603;45.638;11.714;2022-12-18T02:02:16;3.00;;;2.70;;
67804;SDS011;54603;45.638;11.714;2022-12-18T02:04:43;3.90;;;2.80;;
67804;SDS011;54603;45.638;11.714;2022-12-18T02:10:21;3.50;;;2.90;;
67804;SDS011;54603;45.638;11.714;2022-12-18T02:12:54;3.10;;;2.50;;
67804;SDS011;54603;45.638;11.714;2022-12-18T02:15:24;2.80;;;2.50;;
67804;SDS011;54603;45.638;11.714;2022-12-18T02:18:07;3.10;;;2.80;;
67804;SDS011;54603;45.638;11.714;2022-12-18T02:20:44;2.80;;;2.60;;
67804;SDS011;54603;45.638;11.714;2022-12-18T02:28:38;2.70;;;2.50;;
67804;SDS011;54603;45.638;11.714;2022-12-18T02:31:07;4.10;;;2.50;;
67804;SDS011;54603;45.638;11.714;2022-12-18T02:33:38;2.50;;;2.20;;
67804;SDS011;54603;45.638;11.714;2022-12-18T02:36:05;3.20;;;2.40;;
67804;SDS011;54603;45.638;11.714;2022-12-18T02:38:31;2.90;;;2.60;;
67804;SDS011;54603;45.638;11.714;2022-12-18T02:40:58;2.70;;;2.30;;
67804;SDS011;54603;45.638;11.714;2022-12-18T02:43:24;3.20;;;2.60;;
67804;SDS011;54603;45.638;11.714;2022-12-18T02:45:54;2.90;;;2.40;;
67804;SDS011;54603;45.638;11.714;2022-12-18T02:48:23;2.70;;;2.30;;
67804;SDS011;54603;45.638;11.714;2022-12-18T02:51:03;2.90;;;2.60;;
67804;SDS011;54603;45.638;11.714;2022-12-18T02:53:36;2.70;;;2.50;;
67804;SDS011;54603;45.638;11.714;2022-12-18T02:56:28;3.00;;;2.60;;
67804;SDS011;54603;45.638;11.714;2022-12-18T02:59:06;3.30;;;2.70;;
67804;SDS011;54603;45.638;11.714;2022-12-18T03:04:39;3.40;;;2.60;;
67804;SDS011;54603;45.638;11.714;2022-12-18T03:07:11;3.30;;;2.60;;
67804;SDS011;54603;45.638;11.714;2022-12-18T03:09:42;3.30;;;2.50;;
67804;SDS011;54603;45.638;11.714;2022-12-18T03:12:21;3.20;;;2.40;;
67804;SDS011;54603;45.638;11.714;2022-12-18T03:17:44;3.30;;;2.70;;
67804;SDS011;54603;45.638;11.714;2022-12-18T03:20:12;2.70;;;2.50;;
67804;SDS011;54603;45.638;11.714;2022-12-18T03:22:40;3.30;;;2.50;;
67804;SDS011;54603;45.638;11.714;2022-12-18T03:25:09;4.30;;;2.60;;
67804;SDS011;54603;45.638;11.714;2022-12-18T03:27:37;3.10;;;2.60;;
67804;SDS011;54603;45.638;11.714;2022-12-18T03:30:06;3.40;;;2.40;;
67804;SDS011;54603;45.638;11.714;2022-12-18T03:35:28;2.70;;;2.30;;
67804;SDS011;54603;45.638;11.714;2022-12-18T03:37:56;2.60;;;2.40;;
67804;SDS011;54603;45.638;11.714;2022-12-18T03:40:23;2.70;;;2.40;;
67804;SDS011;54603;45.638;11.714;2022-12-18T03:43:07;3.70;;;2.50;;
67804;SDS011;54603;45.638;11.714;2022-12-18T03:45:37;2.50;;;2.30;;
67804;SDS011;54603;45.638;11.714;2022-12-18T03:48:07;2.90;;;2.60;;
67804;SDS011;54603;45.638;11.714;2022-12-18T03:50:49;2.80;;;2.50;;
67804;SDS011;54603;45.638;11.714;2022-12-18T03:55:50;2.90;;;2.50;;
67804;SDS011;54603;45.638;11.714;2022-12-18T03:58:17;3.70;;;2.40;;
67804;SDS011;54603;45.638;11.714;2022-12-18T04:00:45;2.80;;;2.60;;
67804;SDS011;54603;45.638;11.714;2022-12-18T04:03:13;2.90;;;2.60;;
67804;SDS011;54603;45.638;11.714;2022-12-18T04:05:39;2.80;;;2.40;;
67804;SDS011;54603;45.638;11.714;2022-12-18T04:08:06;2.70;;;2.40;;
67804;SDS011;54603;45.638;11.714;2022-12-18T04:10:31;3.20;;;2.60;;
67804;SDS011;54603;45.638;11.714;2022-12-18T04:12:57;3.20;;;2.50;;
67804;SDS011;54603;45.638;11.714;2022-12-18T04:15:23;3.10;;;2.60;;
67804;SDS011;54603;45.638;11.714;2022-12-18T04:17:49;3.00;;;2.50;;
67804;SDS011;54603;45.638;11.714;2022-12-18T04:20:15;3.20;;;2.70;;
67804;SDS011;54603;45.638;11.714;2022-12-18T04:22:41;2.50;;;2.30;;
67804;SDS011;54603;45.638;11.714;2022-12-18T04:25:07;3.10;;;2.50;;
67804;SDS011;54603;45.638;11.714;2022-12-18T04:27:33;2.80;;;2.50;;
67804;SDS011;54603;45.638;11.714;2022-12-18T04:29:58;3.10;;;2.30;;
67804;SDS011;54603;45.638;11.714;2022-12-18T04:32:24;2.40;;;2.20;;
67804;SDS011;54603;45.638;11.714;2022-12-18T04:34:50;3.60;;;2.70;;
67804;SDS011;54603;45.638;11.714;2022-12-18T04:37:15;2.60;;;2.20;;
67804;SDS011;54603;45.638;11.714;2022-12-18T04:39:41;2.90;;;2.60;;
67804;SDS011;54603;45.638;11.714;2022-12-18T04:42:06;2.70;;;2.30;;
67804;SDS011;54603;45.638;11.714;2022-12-18T04:44:32;3.60;;;2.60;;
67804;SDS011;54603;45.638;11.714;2022-12-18T04:46:57;2.80;;;2.40;;
67804;SDS011;54603;45.638;11.714;2022-12-18T04:49:23;3.20;;;2.40;;
67804;SDS011;54603;45.638;11.714;2022-12-18T04:51:48;2.80;;;2.40;;
67804;SDS011;54603;45.638;11.714;2022-12-18T04:54:14;2.70;;;2.50;;
67804;SDS011;54603;45.638;11.714;2022-12-18T04:56:39;2.80;;;2.50;;
67804;SDS011;54603;45.638;11.714;2022-12-18T04:59:05;3.20;;;2.30;;
67804;SDS011;54603;45.638;11.714;2022-12-18T05:01:30;2.90;;;2.20;;
67804;SDS011;54603;45.638;11.714;2022-12-18T05:03:56;2.60;;;2.40;;
67804;SDS011;54603;45.638;11.714;2022-12-18T05:06:21;3.20;;;2.50;;
67804;SDS011;54603;45.638;11.714;2022-12-18T05:08:47;2.90;;;2.60;;
67804;SDS011;54603;45.638;11.714;2022-12-18T05:11:14;2.70;;;2.50;;
67804;SDS011;54603;45.638;11.714;2022-12-18T05:13:43;3.00;;;2.50;;
67804;SDS011;54603;45.638;11.714;2022-12-18T05:16:10;2.90;;;2.30;;
67804;SDS011;54603;45.638;11.714;2022-12-18T05:18:36;2.80;;;2.50;;
67804;SDS011;54603;45.638;11.714;2022-12-18T05:21:01;3.10;;;2.80;;
67804;SDS011;54603;45.638;11.714;2022-12-18T05:23:27;2.80;;;2.10;;
67804;SDS011;54603;45.638;11.714;2022-12-18T05:25:53;2.80;;;2.50;;
67804;SDS011;54603;45.638;11.714;2022-12-18T05:28:23;2.80;;;2.40;;
67804;SDS011;54603;45.638;11.714;2022-12-18T05:30:50;3.00;;;2.40;;
67804;SDS011;54603;45.638;11.714;2022-12-18T05:33:17;3.10;;;2.60;;
67804;SDS011;54603;45.638;11.714;2022-12-18T05:35:44;2.70;;;2.40;;
67804;SDS011;54603;45.638;11.714;2022-12-18T05:38:09;2.70;;;2.30;;
67804;SDS011;54603;45.638;11.714;2022-12-18T05:40:35;3.30;;;2.40;;
67804;SDS011;54603;45.638;11.714;2022-12-18T05:43:02;3.30;;;2.50;;
67804;SDS011;54603;45.638;11.714;2022-12-18T05:45:27;2.90;;;2.60;;
67804;SDS011;54603;45.638;11.714;2022-12-18T05:47:53;3.40;;;2.70;;
67804;SDS011;54603;45.638;11.714;2022-12-18T05:50:18;2.60;;;2.40;;
67804;SDS011;54603;45.638;11.714;2022-12-18T05:52:44;5.10;;;2.70;;
67804;SDS011;54603;45.638;11.714;2022-12-18T05:55:09;2.90;;;2.50;;
67804;SDS011;54603;45.638;11.714;2022-12-18T05:57:35;2.70;;;2.50;;
67804;SDS011;54603;45.638;11.714;2022-12-18T06:00:01;3.40;;;2.70;;
67804;SDS011;54603;45.638;11.714;2022-12-18T06:02:26;2.90;;;2.60;;
67804;SDS011;54603;45.638;11.714;2022-12-18T06:04:52;3.90;;;2.60;;
67804;SDS011;54603;45.638;11.714;2022-12-18T06:07:17;3.00;;;2.70;;
67804;SDS011;54603;45.638;11.714;2022-12-18T06:09:43;3.00;;;2.70;;
67804;SDS011;54603;45.638;11.714;2022-12-18T06:12:08;5.20;;;3.10;;
67804;SDS011;54603;45.638;11.714;2022-12-18T06:14:34;4.20;;;3.00;;
67804;SDS011;54603;45.638;11.714;2022-12-18T06:16:59;4.60;;;2.90;;
67804;SDS011;54603;45.638;11.714;2022-12-18T06:19:25;3.40;;;2.90;;
67804;SDS011;54603;45.638;11.714;2022-12-18T06:21:51;3.30;;;2.60;;
67804;SDS011;54603;45.638;11.714;2022-12-18T06:24:16;4.00;;;2.80;;
67804;SDS011;54603;45.638;11.714;2022-12-18T06:26:42;3.50;;;2.90;;
67804;SDS011;54603;45.638;11.714;2022-12-18T06:29:07;3.10;;;2.80;;
67804;SDS011;54603;45.638;11.714;2022-12-18T06:31:33;4.10;;;2.80;;
67804;SDS011;54603;45.638;11.714;2022-12-18T06:33:58;3.60;;;2.80;;
67804;SDS011;54603;45.638;11.714;2022-12-18T06:36:24;4.00;;;3.20;;
67804;SDS011;54603;45.638;11.714;2022-12-18T06:38:50;3.30;;;2.90;;
67804;SDS011;54603;45.638;11.714;2022-12-18T06:41:16;3.10;;;2.80;;
67804;SDS011;54603;45.638;11.714;2022-12-18T06:43:43;4.10;;;3.00;;
67804;SDS011;54603;45.638;11.714;2022-12-18T06:46:09;3.80;;;3.30;;
67804;SDS011;54603;45.638;11.714;2022-12-18T06:48:35;3.70;;;3.30;;
67804;SDS011;54603;45.638;11.714;2022-12-18T06:51:02;3.40;;;3.10;;
67804;SDS011;54603;45.638;11.714;2022-12-18T06:53:28;4.30;;;3.10;;
67804;SDS011;54603;45.638;11.714;2022-12-18T06:56:01;3.60;;;3.00;;
67804;SDS011;54603;45.638;11.714;2022-12-18T06:58:26;4.90;;;3.50;;
67804;SDS011;54603;45.638;11.714;2022-12-18T07:00:53;5.10;;;3.20;;
67804;SDS011;54603;45.638;11.714;2022-12-18T07:03:18;4.20;;;3.20;;
67804;SDS011;54603;45.638;11.714;2022-12-18T07:05:44;3.60;;;3.10;;
67804;SDS011;54603;45.638;11.714;2022-12-18T07:08:09;3.90;;;3.20;;
67804;SDS011;54603;45.638;11.714;2022-12-18T07:10:40;4.70;;;3.40;;
67804;SDS011;54603;45.638;11.714;2022-12-18T07:13:07;4.30;;;3.40;;
67804;SDS011;54603;45.638;11.714;2022-12-18T07:15:33;4.00;;;3.50;;
67804;SDS011;54603;45.638;11.714;2022-12-18T07:17:59;4.50;;;3.50;;
67804;SDS011;54603;45.638;11.714;2022-12-18T07:20:24;5.40;;;3.90;;
67804;SDS011;54603;45.638;11.714;2022-12-18T07:22:50;4.30;;;3.60;;
67804;SDS011;54603;45.638;11.714;2022-12-18T07:25:15;3.90;;;3.40;;
67804;SDS011;54603;45.638;11.714;2022-12-18T07:27:41;4.90;;;3.60;;
67804;SDS011;54603;45.638;11.714;2022-12-18T07:30:06;4.70;;;3.50;;
67804;SDS011;54603;45.638;11.714;2022-12-18T07:32:32;6.60;;;3.70;;
67804;SDS011;54603;45.638;11.714;2022-12-18T07:34:59;4.10;;;3.40;;
67804;SDS011;54603;45.638;11.714;2022-12-18T07:37:24;4.70;;;3.50;;
67804;SDS011;54603;45.638;11.714;2022-12-18T07:39:50;4.50;;;3.40;;
67804;SDS011;54603;45.638;11.714;2022-12-18T07:42:16;5.50;;;4.10;;
67804;SDS011;54603;45.638;11.714;2022-12-18T07:44:57;6.10;;;3.80;;
67804;SDS011;54603;45.638;11.714;2022-12-18T07:47:26;3.80;;;3.40;;
67804;SDS011;54603;45.638;11.714;2022-12-18T07:49:53;4.50;;;3.50;;
67804;SDS011;54603;45.638;11.714;2022-12-18T07:52:19;4.20;;;3.50;;
67804;SDS011;54603;45.638;11.714;2022-12-18T07:54:45;4.80;;;3.50;;
67804;SDS011;54603;45.638;11.714;2022-12-18T07:57:13;4.10;;;3.70;;
67804;SDS011;54603;45.638;11.714;2022-12-18T07:59:39;4.60;;;3.70;;
67804;SDS011;54603;45.638;11.714;2022-12-18T08:02:04;4.30;;;3.40;;
67804;SDS011;54603;45.638;11.714;2022-12-18T08:04:30;4.60;;;3.80;;
67804;SDS011;54603;45.638;11.714;2022-12-18T08:06:56;6.00;;;3.80;;
67804;SDS011;54603;45.638;11.714;2022-12-18T08:09:21;4.90;;;3.60;;
67804;SDS011;54603;45.638;11.714;2022-12-18T08:11:47;4.50;;;3.70;;
67804;SDS011;54603;45.638;11.714;2022-12-18T08:14:12;4.80;;;3.60;;
67804;SDS011;54603;45.638;11.714;2022-12-18T08:16:39;5.10;;;3.80;;
67804;SDS011;54603;45.638;11.714;2022-12-18T08:19:05;6.60;;;3.70;;
67804;SDS011;54603;45.638;11.714;2022-12-18T08:21:30;5.20;;;3.50;;
67804;SDS011;54603;45.638;11.714;2022-12-18T08:23:57;6.00;;;3.80;;
67804;SDS011;54603;45.638;11.714;2022-12-18T08:26:26;4.20;;;3.70;;
67804;SDS011;54603;45.638;11.714;2022-12-18T08:28:53;4.10;;;3.60;;
67804;SDS011;54603;45.638;11.714;2022-12-18T08:31:20;5.40;;;3.70;;
67804;SDS011;54603;45.638;11.714;2022-12-18T08:33:47;5.10;;;3.80;;
67804;SDS011;54603;45.638;11.714;2022-12-18T08:36:14;3.50;;;3.20;;
67804;SDS011;54603;45.638;11.714;2022-12-18T08:38:40;4.80;;;3.40;;
67804;SDS011;54603;45.638;11.714;2022-12-18T08:41:06;4.00;;;3.60;;
67804;SDS011;54603;45.638;11.714;2022-12-18T08:43:34;4.30;;;3.80;;
67804;SDS011;54603;45.638;11.714;2022-12-18T08:46:19;4.80;;;4.00;;
67804;SDS011;54603;45.638;11.714;2022-12-18T08:48:45;4.40;;;3.90;;
67804;SDS011;54603;45.638;11.714;2022-12-18T08:51:11;4.10;;;3.50;;
67804;SDS011;54603;45.638;11.714;2022-12-18T08:53:36;6.00;;;3.70;;
67804;SDS011;54603;45.638;11.714;2022-12-18T08:56:04;4.60;;;4.00;;
67804;SDS011;54603;45.638;11.714;2022-12-18T08:58:30;5.10;;;4.00;;
67804;SDS011;54603;45.638;11.714;2022-12-18T09:01:01;4.50;;;4.00;;
67804;SDS011;54603;45.638;11.714;2022-12-18T09:05:53;6.00;;;4.20;;
67804;SDS011;54603;45.638;11.714;2022-12-18T09:08:18;5.50;;;4.00;;
67804;SDS011;54603;45.638;11.714;2022-12-18T09:10:45;4.70;;;4.20;;
67804;SDS011;54603;45.638;11.714;2022-12-18T09:13:14;5.70;;;4.20;;
67804;SDS011;54603;45.638;11.714;2022-12-18T09:15:43;5.20;;;4.20;;
67804;SDS011;54603;45.638;11.714;2022-12-18T09:18:12;6.00;;;4.30;;
67804;SDS011;54603;45.638;11.714;2022-12-18T09:20:39;5.20;;;4.20;;
67804;SDS011;54603;45.638;11.714;2022-12-18T09:23:05;4.60;;;4.10;;
67804;SDS011;54603;45.638;11.714;2022-12-18T09:25:31;4.70;;;4.00;;
67804;SDS011;54603;45.638;11.714;2022-12-18T09:28:05;4.40;;;4.00;;
67804;SDS011;54603;45.638;11.714;2022-12-18T09:30:36;6.90;;;4.30;;
67804;SDS011;54603;45.638;11.714;2022-12-18T09:33:02;4.50;;;4.10;;
67804;SDS011;54603;45.638;11.714;2022-12-18T09:35:28;4.90;;;4.50;;
67804;SDS011;54603;45.638;11.714;2022-12-18T09:37:53;5.80;;;4.80;;
67804;SDS011;54603;45.638;11.714;2022-12-18T09:40:21;5.30;;;4.80;;
67804;SDS011;54603;45.638;11.714;2022-12-18T09:42:54;6.00;;;5.10;;
67804;SDS011;54603;45.638;11.714;2022-12-18T09:45:22;9.00;;;5.40;;
67804;SDS011;54603;45.638;11.714;2022-12-18T09:47:48;6.20;;;5.00;;
67804;SDS011;54603;45.638;11.714;2022-12-18T09:50:22;6.10;;;5.40;;
67804;SDS011;54603;45.638;11.714;2022-12-18T09:52:56;6.00;;;5.30;;
67804;SDS011;54603;45.638;11.714;2022-12-18T09:55:26;5.50;;;4.90;;
67804;SDS011;54603;45.638;11.714;2022-12-18T09:57:56;6.30;;;5.10;;
67804;SDS011;54603;45.638;11.714;2022-12-18T10:00:26;6.50;;;5.50;;
67804;SDS011;54603;45.638;11.714;2022-12-18T10:02:53;5.90;;;5.30;;
67804;SDS011;54603;45.638;11.714;2022-12-18T10:08:02;6.60;;;5.10;;
67804;SDS011;54603;45.638;11.714;2022-12-18T10:13:07;6.50;;;5.30;;
67804;SDS011;54603;45.638;11.714;2022-12-18T10:16:29;8.20;;;5.30;;
67804;SDS011;54603;45.638;11.714;2022-12-18T10:18:37;5.60;;;5.00;;
67804;SDS011;54603;45.638;11.714;2022-12-18T10:21:12;9.00;;;4.80;;
67804;SDS011;54603;45.638;11.714;2022-12-18T10:26:29;6.10;;;5.10;;
67804;SDS011;54603;45.638;11.714;2022-12-18T10:28:56;5.50;;;4.90;;
67804;SDS011;54603;45.638;11.714;2022-12-18T10:31:23;5.60;;;5.00;;
67804;SDS011;54603;45.638;11.714;2022-12-18T10:33:49;5.70;;;5.00;;
67804;SDS011;54603;45.638;11.714;2022-12-18T10:36:15;6.70;;;4.70;;
67804;SDS011;54603;45.638;11.714;2022-12-18T10:38:40;5.20;;;4.60;;
67804;SDS011;54603;45.638;11.714;2022-12-18T10:43:46;5.60;;;5.00;;
67804;SDS011;54603;45.638;11.714;2022-12-18T10:46:16;6.50;;;5.10;;
67804;SDS011;54603;45.638;11.714;2022-12-18T10:51:16;6.40;;;5.00;;
67804;SDS011;54603;45.638;11.714;2022-12-18T10:53:52;4.90;;;4.40;;
67804;SDS011;54603;45.638;11.714;2022-12-18T10:56:23;5.70;;;4.90;;
67804;SDS011;54603;45.638;11.714;2022-12-18T10:58:57;5.50;;;5.00;;
67804;SDS011;54603;45.638;11.714;2022-12-18T11:01:25;5.30;;;4.80;;
67804;SDS011;54603;45.638;11.714;2022-12-18T11:06:16;6.60;;;4.80;;
67804;SDS011;54603;45.638;11.714;2022-12-18T11:08:46;6.20;;;4.60;;
67804;SDS011;54603;45.638;11.714;2022-12-18T11:11:42;8.50;;;4.50;;
67804;SDS011;54603;45.638;11.714;2022-12-18T11:14:18;7.10;;;4.90;;
67804;SDS011;54603;45.638;11.714;2022-12-18T11:16:49;9.50;;;6.50;;
67804;SDS011;54603;45.638;11.714;2022-12-18T11:19:21;8.00;;;6.60;;
67804;SDS011;54603;45.638;11.714;2022-12-18T11:21:49;9.40;;;7.40;;
67804;SDS011;54603;45.638;11.714;2022-12-18T11:24:34;10.90;;;7.50;;
67804;SDS011;54603;45.638;11.714;2022-12-18T11:27:02;11.20;;;8.10;;
67804;SDS011;54603;45.638;11.714;2022-12-18T11:29:36;11.80;;;8.60;;
67804;SDS011;54603;45.638;11.714;2022-12-18T11:34:45;10.50;;;8.30;;
67804;SDS011;54603;45.638;11.714;2022-12-18T11:37:12;12.50;;;9.20;;
67804;SDS011;54603;45.638;11.714;2022-12-18T11:50:31;11.30;;;8.80;;
67804;SDS011;54603;45.638;11.714;2022-12-18T11:52:57;11.60;;;8.70;;
67804;SDS011;54603;45.638;11.714;2022-12-18T12:00:26;12.00;;;8.90;;
67804;SDS011;54603;45.638;11.714;2022-12-18T12:03:13;12.60;;;9.40;;
67804;SDS011;54603;45.638;11.714;2022-12-18T12:09:06;10.90;;;8.10;;
67804;SDS011;54603;45.638;11.714;2022-12-18T12:14:32;11.00;;;8.10;;
67804;SDS011;54603;45.638;11.714;2022-12-18T12:17:09;11.70;;;8.10;;
67804;SDS011;54603;45.638;11.714;2022-12-18T12:22:21;11.30;;;8.30;;
67804;SDS011;54603;45.638;11.714;2022-12-18T12:27:39;10.50;;;8.00;;
67804;SDS011;54603;45.638;11.714;2022-12-18T12:30:11;9.10;;;7.70;;
67804;SDS011;54603;45.638;11.714;2022-12-18T12:32:53;11.60;;;7.90;;
67804;SDS011;54603;45.638;11.714;2022-12-18T12:38:34;9.20;;;7.50;;
67804;SDS011;54603;45.638;11.714;2022-12-18T12:41:16;9.70;;;7.40;;
67804;SDS011;54603;45.638;11.714;2022-12-18T12:44:25;10.40;;;7.30;;
67804;SDS011;54603;45.638;11.714;2022-12-18T12:46:55;10.60;;;7.00;;
67804;SDS011;54603;45.638;11.714;2022-12-18T12:49:22;8.80;;;7.10;;
67804;SDS011;54603;45.638;11.714;2022-12-18T12:54:31;9.10;;;7.30;;
67804;SDS011;54603;45.638;11.714;2022-12-18T12:59:37;9.40;;;7.40;;
67804;SDS011;54603;45.638;11.714;2022-12-18T13:07:51;10.10;;;7.20;;
67804;SDS011;54603;45.638;11.714;2022-12-18T13:12:53;8.20;;;6.50;;
67804;SDS011;54603;45.638;11.714;2022-12-18T13:20:36;9.60;;;6.80;;
67804;SDS011;54603;45.638;11.714;2022-12-18T13:23:46;7.70;;;6.10;;
67804;SDS011;54603;45.638;11.714;2022-12-18T13:25:54;7.40;;;5.60;;
67804;SDS011;54603;45.638;11.714;2022-12-18T13:36:45;7.40;;;6.40;;
67804;SDS011;54603;45.638;11.714;2022-12-18T13:41:48;6.90;;;5.90;;
67804;SDS011;54603;45.638;11.714;2022-12-18T13:46:58;7.50;;;5.80;;
67804;SDS011;54603;45.638;11.714;2022-12-18T13:52:14;9.90;;;6.10;;
67804;SDS011;54603;45.638;11.714;2022-12-18T13:54:52;6.20;;;5.60;;
67804;SDS011;54603;45.638;11.714;2022-12-18T13:57:28;7.10;;;5.60;;
67804;SDS011;54603;45.638;11.714;2022-12-18T13:59:56;6.70;;;5.30;;
67804;SDS011;54603;45.638;11.714;2022-12-18T14:02:23;6.70;;;5.50;;
67804;SDS011;54603;45.638;11.714;2022-12-18T14:04:53;6.10;;;5.50;;
67804;SDS011;54603;45.638;11.714;2022-12-18T14:07:23;8.30;;;5.90;;
67804;SDS011;54603;45.638;11.714;2022-12-18T14:09:52;8.90;;;5.90;;
67804;SDS011;54603;45.638;11.714;2022-12-18T14:12:22;6.60;;;5.50;;
67804;SDS011;54603;45.638;11.714;2022-12-18T14:17:46;6.40;;;5.40;;
67804;SDS011;54603;45.638;11.714;2022-12-18T14:20:13;6.80;;;5.50;;
67804;SDS011;54603;45.638;11.714;2022-12-18T14:22:39;9.60;;;5.50;;
67804;SDS011;54603;45.638;11.714;2022-12-18T14:27:41;18.70;;;6.70;;
67804;SDS011;54603;45.638;11.714;2022-12-18T14:33:10;24.80;;;7.50;;
67804;SDS011;54603;45.638;11.714;2022-12-18T14:35:54;21.20;;;7.30;;
67804;SDS011;54603;45.638;11.714;2022-12-18T14:41:02;22.00;;;7.80;;
67804;SDS011;54603;45.638;11.714;2022-12-18T14:43:30;21.90;;;7.60;;
67804;SDS011;54603;45.638;11.714;2022-12-18T14:45:59;24.90;;;8.00;;
67804;SDS011;54603;45.638;11.714;2022-12-18T14:48:38;23.70;;;7.70;;
67804;SDS011;54603;45.638;11.714;2022-12-18T14:51:06;17.10;;;7.40;;
67804;SDS011;54603;45.638;11.714;2022-12-18T14:53:48;26.80;;;8.00;;
67804;SDS011;54603;45.638;11.714;2022-12-18T14:58:52;20.90;;;8.90;;
67804;SDS011;54603;45.638;11.714;2022-12-18T15:01:29;21.60;;;8.60;;
67804;SDS011;54603;45.638;11.714;2022-12-18T15:03:56;23.30;;;9.00;;
67804;SDS011;54603;45.638;11.714;2022-12-18T15:06:33;21.10;;;8.40;;
67804;SDS011;54603;45.638;11.714;2022-12-18T15:09:02;20.30;;;8.20;;
67804;SDS011;54603;45.638;11.714;2022-12-18T15:11:35;20.70;;;8.30;;
67804;SDS011;54603;45.638;11.714;2022-12-18T15:14:23;21.20;;;7.60;;
67804;SDS011;54603;45.638;11.714;2022-12-18T15:16:59;18.80;;;7.90;;
67804;SDS011;54603;45.638;11.714;2022-12-18T15:19:32;20.40;;;8.00;;
67804;SDS011;54603;45.638;11.714;2022-12-18T15:22:13;18.10;;;8.00;;
67804;SDS011;54603;45.638;11.714;2022-12-18T15:24:42;20.60;;;9.00;;
67804;SDS011;54603;45.638;11.714;2022-12-18T15:27:19;22.60;;;9.10;;
67804;SDS011;54603;45.638;11.714;2022-12-18T15:32:39;21.40;;;8.80;;
67804;SDS011;54603;45.638;11.714;2022-12-18T15:37:37;13.60;;;7.90;;
67804;SDS011;54603;45.638;11.714;2022-12-18T15:40:03;15.00;;;7.80;;
67804;SDS011;54603;45.638;11.714;2022-12-18T15:42:29;17.10;;;7.00;;
67804;SDS011;54603;45.638;11.714;2022-12-18T15:45:14;13.40;;;7.60;;
67804;SDS011;54603;45.638;11.714;2022-12-18T15:47:41;15.10;;;8.00;;
67804;SDS011;54603;45.638;11.714;2022-12-18T15:50:07;15.10;;;7.90;;
67804;SDS011;54603;45.638;11.714;2022-12-18T15:52:36;18.70;;;8.00;;
67804;SDS011;54603;45.638;11.714;2022-12-18T15:55:05;20.50;;;7.70;;
67804;SDS011;54603;45.638;11.714;2022-12-18T15:57:59;17.50;;;7.70;;
67804;SDS011;54603;45.638;11.714;2022-12-18T16:00:25;14.90;;;7.50;;
67804;SDS011;54603;45.638;11.714;2022-12-18T16:02:51;21.30;;;8.30;;
67804;SDS011;54603;45.638;11.714;2022-12-18T16:05:17;18.20;;;7.70;;
67804;SDS011;54603;45.638;11.714;2022-12-18T16:07:44;16.50;;;7.60;;
67804;SDS011;54603;45.638;11.714;2022-12-18T16:10:10;13.30;;;7.80;;
67804;SDS011;54603;45.638;11.714;2022-12-18T16:12:36;17.60;;;7.40;;
67804;SDS011;54603;45.638;11.714;2022-12-18T16:15:02;16.90;;;7.90;;
67804;SDS011;54603;45.638;11.714;2022-12-18T16:17:29;13.20;;;7.80;;
67804;SDS011;54603;45.638;11.714;2022-12-18T16:19:54;14.70;;;7.40;;
67804;SDS011;54603;45.638;11.714;2022-12-18T16:22:21;13.40;;;7.20;;
67804;SDS011;54603;45.638;11.714;2022-12-18T16:24:52;15.10;;;7.50;;
67804;SDS011;54603;45.638;11.714;2022-12-18T16:27:18;12.80;;;7.30;;
67804;SDS011;54603;45.638;11.714;2022-12-18T16:29:44;16.10;;;7.50;;
67804;SDS011;54603;45.638;11.714;2022-12-18T16:32:15;13.10;;;7.50;;
67804;SDS011;54603;45.638;11.714;2022-12-18T16:34:42;12.00;;;7.10;;
67804;SDS011;54603;45.638;11.714;2022-12-18T16:37:09;14.40;;;7.10;;
67804;SDS011;54603;45.638;11.714;2022-12-18T16:39:36;13.90;;;7.80;;
67804;SDS011;54603;45.638;11.714;2022-12-18T16:42:03;12.90;;;7.00;;
67804;SDS011;54603;45.638;11.714;2022-12-18T16:44:31;10.00;;;7.20;;
67804;SDS011;54603;45.638;11.714;2022-12-18T16:46:57;14.00;;;7.60;;
67804;SDS011;54603;45.638;11.714;2022-12-18T16:49:27;14.90;;;7.60;;